Item Display Status Humidity-temperature Sensor

Elevation Above Sea Level: 3 m

 

Deployed Sensor

  • Serial Number: 20351209
  • NDBC Property Number: 43275
  • Start Date: 4/17/2020 (11:11:26 Z)
  • End Date: Currently Active
Relative Humidity [%]     6 entries per hour
Showing data from 1/20/2021 (00:00:00 Z) to 1/19/2021 (00:00:01 Z)
Previous Next [ Day | 3-Days | 7-Days ]
First Last
Prev [ Day | 3-Days | 7-Days ] Next
First Last

Start Time:     :
End Time:     :     
Time (in GMT) :00 :50 :40 :30 :20 :10
Previous Next [ Day | 3-Days | 7-Days ]
First Last
Prev [ Day | 3-Days | 7-Days ] Next
First Last


123 => good data
MM => data is determined as missing
-- => data not received/configured
Back to Top Back to Top
1/20/2021 00:00 to 23:10 95.59 95.53 95.45 94.95 95.82 96.03
1/19/2021 23:00 to 22:10 96.27 96.30 96.38 96.19 96.27 96.81
1/19/2021 22:00 to 21:10 97.37 98.26 98.63 98.34 99.12 97.33
1/19/2021 21:00 to 20:10 96.48 96.71 98.01 98.52 99.39 98.92
1/19/2021 20:00 to 19:10 98.11 96.98 95.84 96.07 96.63 96.98
1/19/2021 19:00 to 18:10 97.10 97.12 97.37 97.43 97.24 96.83
1/19/2021 18:00 to 17:10 96.67 97.04 96.69 96.61 96.44 95.88
1/19/2021 17:00 to 16:10 95.68 96.42 95.92 97.02 95.82 94.97
1/19/2021 16:00 to 15:10 94.62 94.54 94.62 93.92 93.96 94.23
1/19/2021 15:00 to 14:10 94.60 96.46 94.25 95.04 96.87 94.91
1/19/2021 14:00 to 13:10 96.50 95.78 95.88 97.06 96.87 97.47
1/19/2021 13:00 to 12:10 97.70 98.59 98.96 99.08 99.47 99.16
1/19/2021 12:00 to 11:10 99.06 98.79 99.00 99.47 99.41 99.64
1/19/2021 11:00 to 10:10 99.66 99.74 99.64 100.01 100.15 100.15
1/19/2021 10:00 to 9:10 100.22 100.15 100.30 100.28 100.18 100.09
1/19/2021 09:00 to 8:10 99.82 99.89 100.01 100.09 100.24 100.22
1/19/2021 08:00 to 7:10 100.09 100.18 100.24 99.78 99.56 99.35
1/19/2021 07:00 to 6:10 98.75 98.38 98.24 98.50 98.01 98.07
1/19/2021 06:00 to 5:10 98.24 98.54 99.12 99.54 99.33 99.14
1/19/2021 05:00 to 4:10 99.33 99.12 98.77 98.79 98.61 98.15
1/19/2021 04:00 to 3:10 98.07 98.42 98.77 98.63 98.61 98.36
1/19/2021 03:00 to 2:10 98.21 97.70 97.20 96.81 96.85 97.45
1/19/2021 02:00 to 1:10 97.70 97.64 97.45 97.47 97.04 97.04
1/19/2021 01:00 to 0:10 96.50 97.02 96.61 96.30 95.99 95.59

 

 

 

Air Temperature [°C]     6 entries per hour
Showing data from 1/20/2021 (00:00:00 Z) to 1/19/2021 (00:00:01 Z)
Previous Next [ Day | 3-Days | 7-Days ]
First Last
Prev [ Day | 3-Days | 7-Days ] Next
First Last

Start Time:     :
End Time:     :     
Time (in GMT) :00 :50 :40 :30 :20 :10
Previous Next [ Day | 3-Days | 7-Days ]
First Last
Prev [ Day | 3-Days | 7-Days ] Next
First Last


123 => good data
MM => data is determined as missing
-- => data not received/configured
Back to Top Back to Top
1/20/2021 00:00 to 23:10 24.32 24.35 24.39 24.44 24.26 24.26
1/19/2021 23:00 to 22:10 24.39 24.26 24.33 24.34 24.33 24.33
1/19/2021 22:00 to 21:10 24.22 24.18 24.05 23.85 23.96 24.22
1/19/2021 21:00 to 20:10 24.39 24.38 24.30 24.27 24.10 24.01
1/19/2021 20:00 to 19:10 24.19 24.45 24.58 24.47 24.45 24.26
1/19/2021 19:00 to 18:10 24.28 24.25 24.29 24.26 24.26 24.21
1/19/2021 18:00 to 17:10 24.23 24.23 24.27 24.32 24.36 24.31
1/19/2021 17:00 to 16:10 24.27 24.31 24.25 24.27 24.42 24.43
1/19/2021 16:00 to 15:10 24.54 24.45 24.61 24.74 24.64 24.54
1/19/2021 15:00 to 14:10 24.53 24.25 24.47 24.37 24.04 24.54
1/19/2021 14:00 to 13:10 24.11 24.18 24.19 23.99 24.01 23.99
1/19/2021 13:00 to 12:10 23.85 23.66 23.61 23.68 23.74 23.61
1/19/2021 12:00 to 11:10 23.71 23.56 23.55 23.57 23.61 23.51
1/19/2021 11:00 to 10:10 23.52 23.52 23.53 23.53 23.53 23.56
1/19/2021 10:00 to 9:10 23.55 23.54 23.56 23.58 23.56 23.56
1/19/2021 09:00 to 8:10 23.55 23.59 23.60 23.62 23.57 23.63
1/19/2021 08:00 to 7:10 23.59 23.63 23.70 23.69 23.70 23.74
1/19/2021 07:00 to 6:10 23.77 23.79 23.81 23.93 23.81 23.83
1/19/2021 06:00 to 5:10 23.90 23.91 23.73 23.87 23.89 23.85
1/19/2021 05:00 to 4:10 23.94 24.00 23.93 24.00 24.01 24.00
1/19/2021 04:00 to 3:10 23.89 23.93 23.97 23.98 23.94 24.00
1/19/2021 03:00 to 2:10 24.04 24.04 24.06 24.04 23.95 23.99
1/19/2021 02:00 to 1:10 23.97 24.04 23.98 24.05 24.06 24.07
1/19/2021 01:00 to 0:10 24.05 24.01 24.10 24.11 24.20 24.13